Flight Number: EUR1411 Duration: 1:15
Departure: Geneva Cointrin Airport (LSGG) at 21:15 Distance: 386 Nm
Arrival: Gatwick Airport (EGKK) at 22:30 Equipment: B737

Weather Information
Geneve-Cointrin, Switzerland (LSGG) 46-15N 006-08E 416M Oct 19, 2018 - 01:50 PM EDT / 2018.10.19 1750 UTC
Wind: Variable at 2 MPH (2 KT):0
Visibility: 5 mile(s):0 Temperature: 57 F (14 C) Dew Point: 48 F (9 C) Relative Humidity: 71% Pressure (altimeter): 30.18 in. Hg (1022 hPa)
ob: LSGG 191750Z VRB02KT 9000 NSC 14/09 Q1022 NOSIG cycle: 18
Sunrise: 06:02 Sunset: 16:38 (UTC)

London / Gatwick Airport, United Kingdom (EGKK) 51-09N 000-11W 0M Oct 19, 2018 - 01:50 PM EDT / 2018.10.19 1750 UTC
Wind: from the WNW (300 degrees) at 5 MPH (4 KT) (direction variable):0
Visibility: greater than 7 mile(s):0 Temperature: 55 F (13 C) Dew Point: 44 F (7 C) Relative Humidity: 66% Pressure (altimeter): 30.33 in. Hg (1027 hPa)
ob: EGKK 191750Z 30004KT 190V340 CAVOK 13/07 Q1027 cycle: 18
Sunrise: 06:35 Sunset: 16:55 (UTC)

TAF:2018/10/19 18:12 TAF EGKK 191707Z 1918/2024 34004KT CAVOK BECMG 1922/2001 6000 PROB30 2001/2009 0500 FG VV/// BECMG 2009/2012 CAVOK BECMG 2021/2024 5000 HZ

Previous Pireps for this route
Date Aircraft Flight time Fuel used Landing rate On time
2014-01-11B73702.3610130-315No
2014-02-17B73701.4813947-544No
2015-01-05B7371.227616-86No
2016-01-23B7372.06126000No
2016-02-23CRJ7001.333444-176Charter
2016-03-21B73701.296924-158No
2016-04-18B73701.327618-361Yes
2016-08-28B73700.599847-306Yes
2016-10-28B7371.1478790No
2018-03-27B73702.387058-400No
(pireps marked green are flown by you)

Route map